Time;durP1;ratioP1;P1;durP2;ratioP2;P2;SDS_P1;SDS_P2;PMS_P1;PMS_P2;Temp;Humidity;BMP_temperature;BMP_pressure;BME280_temperature;BME280_humidity;BME280_pressure;Samples;Min_cycle;Max_cycle;Signal;HPM_P1;HPM_P2
2023/11/04 00:00:13;;;;;;;0.20;0.10;;;;;;;;;;4966303;28;20517;-84
2023/11/04 00:02:39;;;;;;;0.20;0.10;;;;;;;;;;4969236;28;20481;-85
2023/11/04 00:05:15;;;;;;;0.20;0.05;;;;;;;;;;4973267;28;20064;-89
2023/11/04 00:07:45;;;;;;;0.20;0.10;;;;;;;;;;4981606;28;20034;-87
2023/11/04 00:10:11;;;;;;;0.20;0.00;;;;;;;;;;4967192;28;20042;-85
2023/11/04 00:12:37;;;;;;;0.20;0.00;;;;;;;;;;4972699;28;20379;-87
2023/11/04 00:15:06;;;;;;;0.20;0.00;;;;;;;;;;4972847;28;20117;-85
2023/11/04 00:17:32;;;;;;;0.20;0.05;;;;;;;;;;4968081;28;20450;-84
2023/11/04 00:20:06;;;;;;;0.20;0.10;;;;;;;;;;4964817;28;20038;-89
2023/11/04 00:22:35;;;;;;;0.20;0.10;;;;;;;;;;4984020;28;21144;-86
2023/11/04 00:25:07;;;;;;;0.20;0.10;;;;;;;;;;4985920;28;20038;-90
2023/11/04 00:27:33;;;;;;;0.20;0.00;;;;;;;;;;4989383;28;20492;-81
2023/11/04 00:29:59;;;;;;;0.20;0.10;;;;;;;;;;4983492;28;20040;-84
2023/11/04 00:32:25;;;;;;;0.20;0.10;;;;;;;;;;4971955;28;20038;-87
2023/11/04 00:34:54;;;;;;;0.20;0.00;;;;;;;;;;4974129;28;20029;-86
2023/11/04 00:37:23;;;;;;;0.20;0.10;;;;;;;;;;4985411;28;20064;-86
2023/11/04 00:39:50;;;;;;;0.20;0.00;;;;;;;;;;4967367;28;20053;-87
2023/11/04 00:42:16;;;;;;;0.20;0.00;;;;;;;;;;4969911;28;20096;-84
2023/11/04 00:44:42;;;;;;;0.20;0.00;;;;;;;;;;4985199;28;20045;-84
2023/11/04 00:47:08;;;;;;;0.20;0.10;;;;;;;;;;4967325;28;20499;-85
2023/11/04 00:49:34;;;;;;;0.20;0.10;;;;;;;;;;4966819;28;20049;-86
2023/11/04 00:52:00;;;;;;;0.20;0.00;;;;;;;;;;4990721;28;20505;-86
2023/11/04 00:54:26;;;;;;;0.20;0.10;;;;;;;;;;4986669;28;20042;-85
2023/11/04 00:56:55;;;;;;;0.20;0.10;;;;;;;;;;4985850;28;20052;-87
2023/11/04 00:59:25;;;;;;;0.20;0.10;;;;;;;;;;4970786;28;20157;-86
2023/11/04 01:01:51;;;;;;;0.20;0.00;;;;;;;;;;4970912;28;20050;-87
2023/11/04 01:04:20;;;;;;;0.20;0.00;;;;;;;;;;4970979;28;20041;-86
2023/11/04 01:06:55;;;;;;;0.20;0.00;;;;;;;;;;4983720;28;20049;-85
2023/11/04 01:09:27;;;;;;;0.20;0.00;;;;;;;;;;4984400;28;20041;-85
2023/11/04 01:11:56;;;;;;;0.20;0.10;;;;;;;;;;4960283;28;20255;-87
2023/11/04 01:14:22;;;;;;;0.20;0.10;;;;;;;;;;4984274;28;20137;-87
2023/11/04 01:16:55;;;;;;;0.20;0.00;;;;;;;;;;4969279;28;20042;-89
2023/11/04 01:19:25;;;;;;;0.20;0.00;;;;;;;;;;4972963;28;20033;-87
2023/11/04 01:21:59;;;;;;;0.20;0.00;;;;;;;;;;4965581;28;20049;-88
2023/11/04 01:24:28;;;;;;;0.57;0.20;;;;;;;;;;4972104;28;20441;-86
2023/11/04 01:26:58;;;;;;;0.20;0.00;;;;;;;;;;4983321;28;20125;-88
2023/11/04 01:29:24;;;;;;;0.20;0.00;;;;;;;;;;4963054;28;20042;-86
2023/11/04 01:31:50;;;;;;;0.20;0.00;;;;;;;;;;4982889;28;20045;-87
2023/11/04 01:34:16;;;;;;;0.20;0.00;;;;;;;;;;4964730;28;20049;-86
2023/11/04 01:36:45;;;;;;;0.20;0.10;;;;;;;;;;4962049;28;20046;-85
2023/11/04 01:39:14;;;;;;;0.20;0.00;;;;;;;;;;4967580;28;20042;-86
2023/11/04 01:41:40;;;;;;;0.20;0.00;;;;;;;;;;4968423;28;20450;-87
2023/11/04 01:44:06;;;;;;;0.20;0.00;;;;;;;;;;4968546;28;20498;-82
2023/11/04 01:46:32;;;;;;;0.20;0.10;;;;;;;;;;4967314;28;20038;-85
2023/11/04 01:48:59;;;;;;;0.20;0.00;;;;;;;;;;4974287;28;20761;-86
2023/11/04 01:51:25;;;;;;;0.20;0.00;;;;;;;;;;4987287;28;20063;-89
2023/11/04 01:53:57;;;;;;;0.20;0.10;;;;;;;;;;4958904;28;20060;-87
2023/11/04 01:56:31;;;;;;;0.20;0.00;;;;;;;;;;4961460;28;20054;-86
2023/11/04 01:59:03;;;;;;;0.20;0.00;;;;;;;;;;4966545;28;20077;-85
2023/11/04 02:01:45;;;;;;;0.20;0.03;;;;;;;;;;4980082;28;20045;-85
2023/11/04 02:04:12;;;;;;;0.20;0.00;;;;;;;;;;4963575;28;20042;-83
2023/11/04 02:06:48;;;;;;;0.20;0.10;;;;;;;;;;4971095;28;20034;-87
2023/11/04 02:09:24;;;;;;;0.20;0.00;;;;;;;;;;4984432;28;20045;-87
2023/11/04 02:11:53;;;;;;;0.20;0.00;;;;;;;;;;4984474;28;20426;-85
2023/11/04 02:14:19;;;;;;;0.20;0.00;;;;;;;;;;4969112;28;20723;-84
2023/11/04 02:16:48;;;;;;;0.20;0.00;;;;;;;;;;4968495;28;20510;-85
2023/11/04 02:19:17;;;;;;;0.20;0.00;;;;;;;;;;4966891;28;20096;-86
2023/11/04 02:21:43;;;;;;;0.20;0.00;;;;;;;;;;4988231;28;20045;-84
2023/11/04 02:24:15;;;;;;;0.20;0.10;;;;;;;;;;4986556;28;20042;-87
2023/11/04 02:26:44;;;;;;;0.20;0.10;;;;;;;;;;4969681;28;20129;-87
2023/11/04 02:29:10;;;;;;;0.20;0.00;;;;;;;;;;4983530;28;20380;-85
2023/11/04 02:31:36;;;;;;;0.20;0.10;;;;;;;;;;4965376;28;20823;-86
2023/11/04 02:34:05;;;;;;;0.20;0.00;;;;;;;;;;4983083;28;20069;-86
2023/11/04 02:36:35;;;;;;;0.20;0.00;;;;;;;;;;4984510;28;20057;-87
2023/11/04 02:39:05;;;;;;;0.20;0.05;;;;;;;;;;4965308;28;20077;-86
2023/11/04 02:41:31;;;;;;;0.20;0.10;;;;;;;;;;4980141;28;20034;-85
2023/11/04 02:43:57;;;;;;;0.20;0.10;;;;;;;;;;4986352;28;20042;-85
2023/11/04 02:46:23;;;;;;;0.20;0.10;;;;;;;;;;4966515;28;20046;-85
2023/11/04 02:48:49;;;;;;;0.20;0.10;;;;;;;;;;4975597;28;20042;-85
2023/11/04 02:51:15;;;;;;;0.20;0.15;;;;;;;;;;4973352;28;20041;-86
2023/11/04 02:53:41;;;;;;;0.20;0.00;;;;;;;;;;4966138;28;20248;-85
2023/11/04 02:56:08;;;;;;;0.20;0.13;;;;;;;;;;4985589;28;20073;-85
2023/11/04 02:58:36;;;;;;;0.20;0.00;;;;;;;;;;4965418;28;20069;-87
2023/11/04 03:01:05;;;;;;;0.22;0.10;;;;;;;;;;4995430;28;20069;-89
2023/11/04 03:03:31;;;;;;;0.20;0.00;;;;;;;;;;4966378;28;20434;-85
2023/11/04 03:06:00;;;;;;;0.20;0.00;;;;;;;;;;4975334;28;20505;-87
2023/11/04 03:08:30;;;;;;;0.20;0.10;;;;;;;;;;4980924;28;20057;-86
2023/11/04 03:10:57;;;;;;;0.20;0.00;;;;;;;;;;4963175;28;20092;-85
2023/11/04 03:13:23;;;;;;;0.20;0.10;;;;;;;;;;4965700;28;20038;-85
2023/11/04 03:15:49;;;;;;;0.20;0.00;;;;;;;;;;4965849;28;20255;-85
2023/11/04 03:18:23;;;;;;;0.20;0.00;;;;;;;;;;4969906;28;20089;-88
2023/11/04 03:20:49;;;;;;;0.20;0.03;;;;;;;;;;4957059;28;20525;-83
2023/11/04 03:23:18;;;;;;;0.20;0.00;;;;;;;;;;4960997;28;20050;-87
2023/11/04 03:25:45;;;;;;;0.20;0.05;;;;;;;;;;4978423;28;20041;-85
2023/11/04 03:28:10;;;;;;;0.20;0.10;;;;;;;;;;5000436;28;20044;-85
2023/11/04 03:30:39;;;;;;;0.20;0.08;;;;;;;;;;4988977;28;20364;-88
2023/11/04 03:33:11;;;;;;;0.20;0.03;;;;;;;;;;4983290;28;20061;-86
2023/11/04 03:35:37;;;;;;;0.20;0.20;;;;;;;;;;4982238;28;20045;-84
2023/11/04 03:38:06;;;;;;;0.20;0.10;;;;;;;;;;4979996;28;20042;-86
2023/11/04 03:40:35;;;;;;;0.20;0.10;;;;;;;;;;4969566;28;20105;-84
2023/11/04 03:43:01;;;;;;;0.20;0.10;;;;;;;;;;4964454;28;20065;-87
2023/11/04 03:45:36;;;;;;;0.20;0.10;;;;;;;;;;4968916;28;20473;-87
2023/11/04 03:48:08;;;;;;;0.20;0.10;;;;;;;;;;4966427;28;20354;-89
2023/11/04 03:50:34;;;;;;;0.20;0.10;;;;;;;;;;4992263;28;20534;-86
2023/11/04 03:53:00;;;;;;;0.20;0.10;;;;;;;;;;4966334;28;20041;-87
2023/11/04 03:55:26;;;;;;;0.30;0.10;;;;;;;;;;4973460;28;20049;-87
2023/11/04 03:57:55;;;;;;;0.20;0.00;;;;;;;;;;4984137;28;20516;-87
2023/11/04 04:00:21;;;;;;;0.20;0.10;;;;;;;;;;4965533;28;20034;-85
2023/11/04 04:02:47;;;;;;;0.20;0.10;;;;;;;;;;4973259;28;20084;-85
2023/11/04 04:05:13;;;;;;;0.20;0.00;;;;;;;;;;4977694;28;20049;-84
2023/11/04 04:07:39;;;;;;;0.20;0.10;;;;;;;;;;4969453;28;20041;-87
2023/11/04 04:10:06;;;;;;;0.20;0.10;;;;;;;;;;4966665;28;20049;-88
2023/11/04 04:12:32;;;;;;;0.20;0.05;;;;;;;;;;4964623;28;20042;-87
2023/11/04 04:14:58;;;;;;;0.20;0.10;;;;;;;;;;4973072;28;20045;-86
2023/11/04 04:17:26;;;;;;;0.20;0.00;;;;;;;;;;4966686;28;20565;-88
2023/11/04 04:19:52;;;;;;;0.20;0.00;;;;;;;;;;4968129;28;20046;-86
2023/11/04 04:22:20;;;;;;;0.20;0.10;;;;;;;;;;4984818;28;20080;-85
2023/11/04 04:25:09;;;;;;;0.20;0.00;;;;;;;;;;4980848;28;20482;-86
2023/11/04 04:27:38;;;;;;;0.20;0.00;;;;;;;;;;4973225;28;20041;-86
2023/11/04 04:30:10;;;;;;;0.20;0.00;;;;;;;;;;4966721;28;20041;-89
2023/11/04 04:32:36;;;;;;;0.20;0.00;;;;;;;;;;4983481;28;20366;-86
2023/11/04 04:35:02;;;;;;;0.20;0.03;;;;;;;;;;4967149;28;20081;-83
2023/11/04 04:37:28;;;;;;;0.20;0.10;;;;;;;;;;4967149;28;20097;-86
2023/11/04 04:39:54;;;;;;;0.77;0.32;;;;;;;;;;4976237;28;21455;-85
2023/11/04 04:42:27;;;;;;;0.20;0.10;;;;;;;;;;4970925;28;20148;-87
2023/11/04 04:45:02;;;;;;;0.20;0.00;;;;;;;;;;4985459;28;20882;-83
2023/11/04 04:47:38;;;;;;;0.20;0.10;;;;;;;;;;4983732;28;20419;-89
2023/11/04 04:50:09;;;;;;;0.20;0.05;;;;;;;;;;4968631;28;20038;-85
2023/11/04 04:52:35;;;;;;;0.20;0.00;;;;;;;;;;4971230;28;20037;-85
2023/11/04 04:55:04;;;;;;;0.20;0.08;;;;;;;;;;4971903;28;20121;-85
2023/11/04 04:57:34;;;;;;;0.20;0.10;;;;;;;;;;4968960;28;20061;-84
2023/11/04 05:00:00;;;;;;;0.20;0.08;;;;;;;;;;4984431;28;20050;-85
2023/11/04 05:02:26;;;;;;;0.20;0.10;;;;;;;;;;4963229;28;20038;-86
2023/11/04 05:04:52;;;;;;;0.20;0.10;;;;;;;;;;4978704;28;20050;-89
2023/11/04 05:07:21;;;;;;;0.20;0.03;;;;;;;;;;4981103;28;20034;-83
2023/11/04 05:09:47;;;;;;;0.20;0.10;;;;;;;;;;4972104;28;20042;-86
2023/11/04 05:12:14;;;;;;;0.20;0.00;;;;;;;;;;4987194;28;20053;-88
2023/11/04 05:14:43;;;;;;;0.20;0.10;;;;;;;;;;4963791;28;20054;-84
2023/11/04 05:17:12;;;;;;;0.20;0.10;;;;;;;;;;4967669;28;20046;-85
2023/11/04 05:19:38;;;;;;;0.20;0.00;;;;;;;;;;4971772;28;20069;-87
2023/11/04 05:22:07;;;;;;;0.20;0.10;;;;;;;;;;4968417;28;20073;-86
2023/11/04 05:24:35;;;;;;;0.20;0.00;;;;;;;;;;4981891;28;20053;-80
2023/11/04 05:27:02;;;;;;;0.20;0.10;;;;;;;;;;4962631;28;20041;-85
2023/11/04 05:29:31;;;;;;;0.20;0.10;;;;;;;;;;4987788;28;20042;-85
2023/11/04 05:31:57;;;;;;;0.65;0.65;;;;;;;;;;4969024;28;20611;-86
2023/11/04 05:34:23;;;;;;;0.20;0.00;;;;;;;;;;4960604;28;20401;-86
2023/11/04 05:36:49;;;;;;;0.52;0.52;;;;;;;;;;4966608;28;20050;-87
2023/11/04 05:39:15;;;;;;;0.20;0.10;;;;;;;;;;4967437;28;20101;-83
2023/11/04 05:41:41;;;;;;;0.20;0.10;;;;;;;;;;4985128;28;20035;-86
2023/11/04 05:44:20;;;;;;;;;;;;;;;;;;;;;
2023/11/04 05:46:50;;;;;;;0.20;0.00;;;;;;;;;;4984591;28;20069;-87
2023/11/04 05:51:45;;;;;;;0.20;0.00;;;;;;;;;;5039809;28;20060;-83
2023/11/04 05:54:12;;;;;;;0.20;0.10;;;;;;;;;;5005792;28;20049;-82
2023/11/04 05:56:38;;;;;;;0.20;0.00;;;;;;;;;;5007419;28;20045;-83
2023/11/04 05:59:04;;;;;;;0.20;0.00;;;;;;;;;;5009111;28;20505;-84
2023/11/04 06:01:30;;;;;;;0.20;0.10;;;;;;;;;;4988453;28;20045;-84
2023/11/04 06:03:57;;;;;;;0.20;0.00;;;;;;;;;;4990787;28;20034;-85
2023/11/04 06:06:23;;;;;;;0.30;0.20;;;;;;;;;;4990812;28;20037;-83
2023/11/04 06:08:49;;;;;;;0.20;0.00;;;;;;;;;;4996423;28;20421;-81
2023/11/04 06:11:15;;;;;;;0.20;0.00;;;;;;;;;;5000047;28;20099;-82
2023/11/04 06:13:43;;;;;;;0.20;0.00;;;;;;;;;;5004874;28;20710;-82
2023/11/04 06:16:09;;;;;;;0.20;0.00;;;;;;;;;;5001404;28;20041;-83
2023/11/04 06:18:41;;;;;;;0.20;0.00;;;;;;;;;;4999599;28;20045;-84
2023/11/04 06:21:07;;;;;;;0.20;0.10;;;;;;;;;;4996510;28;20045;-84
2023/11/04 06:23:33;;;;;;;0.20;0.10;;;;;;;;;;4998528;28;20041;-83
2023/11/04 06:25:59;;;;;;;0.20;0.00;;;;;;;;;;5004167;28;20517;-78
2023/11/04 06:28:28;;;;;;;0.20;0.10;;;;;;;;;;4991598;28;20041;-82
2023/11/04 06:30:57;;;;;;;0.20;0.00;;;;;;;;;;4998920;28;20041;-84
2023/11/04 06:33:25;;;;;;;0.20;0.08;;;;;;;;;;5003458;28;20143;-84
2023/11/04 06:35:51;;;;;;;0.20;0.00;;;;;;;;;;4999673;28;20044;-84
2023/11/04 06:38:17;;;;;;;0.20;0.10;;;;;;;;;;5001692;28;20204;-81
2023/11/04 06:40:44;;;;;;;0.20;0.00;;;;;;;;;;4998929;28;20030;-84
2023/11/04 06:43:10;;;;;;;0.20;0.00;;;;;;;;;;5003673;28;20045;-82
2023/11/04 06:45:36;;;;;;;0.30;0.28;;;;;;;;;;5001866;28;20029;-80
2023/11/04 06:48:02;;;;;;;0.20;0.00;;;;;;;;;;5005334;28;20099;-85
2023/11/04 06:50:28;;;;;;;0.20;0.10;;;;;;;;;;4979807;28;20168;-82
2023/11/04 06:52:54;;;;;;;0.20;0.10;;;;;;;;;;4978640;28;20029;-82
2023/11/04 06:55:20;;;;;;;0.20;0.10;;;;;;;;;;4993691;28;20045;-84
2023/11/04 06:57:46;;;;;;;0.20;0.00;;;;;;;;;;5005946;28;20100;-83
2023/11/04 07:00:14;;;;;;;0.57;0.40;;;;;;;;;;4993497;28;20682;-81
2023/11/04 07:02:41;;;;;;;0.20;0.00;;;;;;;;;;4991282;28;20128;-82
2023/11/04 07:05:09;;;;;;;0.20;0.00;;;;;;;;;;5003745;28;20768;-84
2023/11/04 07:07:37;;;;;;;0.20;0.20;;;;;;;;;;4997372;28;20033;-84
2023/11/04 07:10:06;;;;;;;0.20;0.10;;;;;;;;;;4997324;28;20049;-81
2023/11/04 07:12:34;;;;;;;0.20;0.00;;;;;;;;;;4995504;28;20128;-84
2023/11/04 07:15:00;;;;;;;0.20;0.10;;;;;;;;;;4993396;28;20038;-84
2023/11/04 07:17:26;;;;;;;0.20;0.00;;;;;;;;;;4985123;28;20100;-84
2023/11/04 07:19:55;;;;;;;0.20;0.10;;;;;;;;;;4994229;28;20129;-84
2023/11/04 07:22:21;;;;;;;0.20;0.10;;;;;;;;;;4995078;28;20048;-86
2023/11/04 07:24:47;;;;;;;0.40;0.40;;;;;;;;;;4998747;28;20049;-82
2023/11/04 07:27:14;;;;;;;0.20;0.00;;;;;;;;;;5007151;28;20038;-82
2023/11/04 07:29:40;;;;;;;0.20;0.10;;;;;;;;;;5005046;28;20033;-85
2023/11/04 07:32:06;;;;;;;0.20;0.05;;;;;;;;;;5006902;28;20092;-83
2023/11/04 07:34:33;;;;;;;0.20;0.10;;;;;;;;;;5005059;28;20077;-83
2023/11/04 07:37:00;;;;;;;0.20;0.05;;;;;;;;;;5010463;28;20049;-86
2023/11/04 07:39:29;;;;;;;0.20;0.10;;;;;;;;;;5008500;28;20041;-82
2023/11/04 07:41:58;;;;;;;0.20;0.10;;;;;;;;;;4996844;28;20037;-84
2023/11/04 07:44:27;;;;;;;0.20;0.10;;;;;;;;;;5007151;28;20507;-84
2023/11/04 07:46:53;;;;;;;0.20;0.10;;;;;;;;;;5024331;28;20057;-85
2023/11/04 07:49:19;;;;;;;0.20;0.00;;;;;;;;;;5006158;28;20103;-82
2023/11/04 07:51:46;;;;;;;0.20;0.00;;;;;;;;;;4993356;28;20034;-84
2023/11/04 07:54:12;;;;;;;0.52;0.52;;;;;;;;;;5010871;28;20038;-82
2023/11/04 07:56:38;;;;;;;0.20;0.10;;;;;;;;;;5007352;28;20065;-82
2023/11/04 07:59:05;;;;;;;0.20;0.10;;;;;;;;;;5010514;28;20041;-82
2023/11/04 08:01:31;;;;;;;0.20;0.00;;;;;;;;;;5011228;28;20046;-80
2023/11/04 08:03:57;;;;;;;0.20;0.10;;;;;;;;;;5011962;28;20048;-80
2023/11/04 08:06:23;;;;;;;0.20;0.00;;;;;;;;;;5011650;28;20069;-80
2023/11/04 08:08:49;;;;;;;0.30;0.20;;;;;;;;;;5018999;28;20121;-83
2023/11/04 08:11:16;;;;;;;0.20;0.00;;;;;;;;;;5020163;28;20042;-81
2023/11/04 08:13:42;;;;;;;0.20;0.10;;;;;;;;;;5023919;28;20033;-80
2023/11/04 08:16:09;;;;;;;0.20;0.00;;;;;;;;;;5021259;28;20103;-82
2023/11/04 08:18:35;;;;;;;0.20;0.05;;;;;;;;;;5016084;28;20081;-81
2023/11/04 08:21:01;;;;;;;0.20;0.10;;;;;;;;;;5013427;28;20059;-81
2023/11/04 08:23:27;;;;;;;0.20;0.10;;;;;;;;;;5014515;28;20045;-83
2023/11/04 08:25:53;;;;;;;0.20;0.00;;;;;;;;;;5011253;28;20456;-83
2023/11/04 08:28:19;;;;;;;0.20;0.00;;;;;;;;;;5009958;28;20037;-80
2023/11/04 08:30:46;;;;;;;0.20;0.00;;;;;;;;;;5009596;28;20098;-81
2023/11/04 08:33:12;;;;;;;0.40;0.20;;;;;;;;;;5005302;28;20264;-82
2023/11/04 08:35:38;;;;;;;0.20;0.10;;;;;;;;;;4995284;28;20045;-83
2023/11/04 08:38:04;;;;;;;0.22;0.15;;;;;;;;;;5006226;28;20100;-84
2023/11/04 08:40:30;;;;;;;0.20;0.00;;;;;;;;;;5009314;28;20067;-83
2023/11/04 08:42:58;;;;;;;0.57;0.57;;;;;;;;;;5010528;28;20746;-84
2023/11/04 08:45:25;;;;;;;0.20;0.10;;;;;;;;;;5005353;28;20052;-82
2023/11/04 08:47:51;;;;;;;0.20;0.10;;;;;;;;;;5007544;28;20034;-82
2023/11/04 08:50:19;;;;;;;0.20;0.05;;;;;;;;;;5003511;28;20059;-83
2023/11/04 08:52:45;;;;;;;0.20;0.00;;;;;;;;;;5004870;28;20045;-82
2023/11/04 08:55:12;;;;;;;0.40;0.40;;;;;;;;;;5007269;28;20116;-84
2023/11/04 08:57:38;;;;;;;0.30;0.15;;;;;;;;;;4998363;28;20046;-83
2023/11/04 09:00:06;;;;;;;0.20;0.10;;;;;;;;;;4990270;28;20136;-85
2023/11/04 09:02:32;;;;;;;0.20;0.10;;;;;;;;;;5009508;28;20554;-82
2023/11/04 09:05:00;;;;;;;0.20;0.00;;;;;;;;;;5007148;28;20128;-82
2023/11/04 09:07:29;;;;;;;0.28;0.08;;;;;;;;;;5005522;28;20121;-85
2023/11/04 09:09:55;;;;;;;0.20;0.03;;;;;;;;;;5002604;28;20533;-84
2023/11/04 09:12:22;;;;;;;0.20;0.10;;;;;;;;;;4990305;28;20048;-84
2023/11/04 09:14:48;;;;;;;0.20;0.00;;;;;;;;;;5002497;28;20073;-83
2023/11/04 09:17:14;;;;;;;0.20;0.00;;;;;;;;;;5003972;28;20045;-84
2023/11/04 09:19:42;;;;;;;0.20;0.00;;;;;;;;;;5004717;28;20135;-85
2023/11/04 09:22:12;;;;;;;0.20;0.00;;;;;;;;;;5000596;28;20100;-84
2023/11/04 09:24:38;;;;;;;0.20;0.00;;;;;;;;;;5018705;28;20038;-83
2023/11/04 09:27:04;;;;;;;0.20;0.03;;;;;;;;;;5006478;28;20454;-83
2023/11/04 09:29:30;;;;;;;0.20;0.00;;;;;;;;;;4992606;28;20113;-82
2023/11/04 09:31:59;;;;;;;0.20;0.10;;;;;;;;;;5009728;28;20546;-84
2023/11/04 09:34:29;;;;;;;0.20;0.10;;;;;;;;;;5005726;28;20388;-85
2023/11/04 09:36:58;;;;;;;0.20;0.10;;;;;;;;;;5007052;28;20038;-84
2023/11/04 09:39:24;;;;;;;0.20;0.10;;;;;;;;;;5007254;28;20041;-84
2023/11/04 09:41:56;;;;;;;0.20;0.00;;;;;;;;;;4991108;28;20136;-82
2023/11/04 09:44:22;;;;;;;0.20;0.10;;;;;;;;;;5005120;28;20114;-83
2023/11/04 09:46:58;;;;;;;0.20;0.10;;;;;;;;;;5007025;28;20041;-84
2023/11/04 09:49:24;;;;;;;0.20;0.00;;;;;;;;;;4988420;28;20554;-83
2023/11/04 09:51:52;;;;;;;0.20;0.10;;;;;;;;;;5005632;28;20049;-82
2023/11/04 09:54:18;;;;;;;0.20;0.00;;;;;;;;;;5008800;28;20033;-84
2023/11/04 09:56:45;;;;;;;0.20;0.08;;;;;;;;;;5025839;28;20069;-84
2023/11/04 09:59:11;;;;;;;0.20;0.00;;;;;;;;;;5010947;28;20029;-84
2023/11/04 10:01:40;;;;;;;0.20;0.00;;;;;;;;;;5003941;28;20513;-83
2023/11/04 10:04:07;;;;;;;0.20;0.00;;;;;;;;;;4988857;28;20080;-84
2023/11/04 10:06:36;;;;;;;0.20;0.00;;;;;;;;;;5003157;28;20116;-84
2023/11/04 10:09:02;;;;;;;0.20;0.10;;;;;;;;;;5026250;28;20033;-85
2023/11/04 10:11:28;;;;;;;0.20;0.05;;;;;;;;;;4996874;28;20033;-85
2023/11/04 10:13:57;;;;;;;0.20;0.10;;;;;;;;;;5009219;28;20045;-82
2023/11/04 10:16:26;;;;;;;0.20;0.00;;;;;;;;;;5023174;28;20344;-84
2023/11/04 10:18:52;;;;;;;0.20;0.00;;;;;;;;;;4992252;28;20045;-84
2023/11/04 10:21:21;;;;;;;0.20;0.00;;;;;;;;;;5003365;28;20076;-82
2023/11/04 10:23:50;;;;;;;0.20;0.10;;;;;;;;;;5006299;28;20406;-81
2023/11/04 10:26:27;;;;;;;0.20;0.10;;;;;;;;;;5003562;28;20299;-86
2023/11/04 10:28:56;;;;;;;0.20;0.00;;;;;;;;;;5028627;28;20392;-83
2023/11/04 10:31:23;;;;;;;0.20;0.00;;;;;;;;;;5001637;28;20045;-83
2023/11/04 10:33:51;;;;;;;0.20;0.10;;;;;;;;;;5004795;28;20528;-83
2023/11/04 10:36:17;;;;;;;0.20;0.00;;;;;;;;;;5005108;28;20126;-83
2023/11/04 10:38:44;;;;;;;0.20;0.10;;;;;;;;;;4994797;28;20441;-85
2023/11/04 10:41:10;;;;;;;0.20;0.00;;;;;;;;;;5004199;28;20049;-83
2023/11/04 10:43:41;;;;;;;0.20;0.10;;;;;;;;;;5017432;28;20417;-83
2023/11/04 10:46:09;;;;;;;0.20;0.00;;;;;;;;;;5003725;28;20033;-84
2023/11/04 10:48:51;;;;;;;0.20;0.00;;;;;;;;;;5000051;28;20061;-84
2023/11/04 10:51:29;;;;;;;0.20;0.10;;;;;;;;;;4999968;28;20111;-82
2023/11/04 10:53:55;;;;;;;0.20;0.00;;;;;;;;;;4998462;28;20049;-84
2023/11/04 10:56:25;;;;;;;0.20;0.00;;;;;;;;;;5019523;28;20041;-83
2023/11/04 10:59:01;;;;;;;0.20;0.00;;;;;;;;;;5008871;28;20422;-81
2023/11/04 11:01:28;;;;;;;0.20;0.10;;;;;;;;;;5007324;28;20066;-83
2023/11/04 11:03:55;;;;;;;0.20;0.10;;;;;;;;;;4996176;28;20043;-83
2023/11/04 11:06:21;;;;;;;0.20;0.00;;;;;;;;;;5004137;28;20115;-82
2023/11/04 11:08:48;;;;;;;0.38;0.17;;;;;;;;;;5023128;28;20121;-83
2023/11/04 11:11:20;;;;;;;0.75;0.40;;;;;;;;;;4993895;28;20109;-85
2023/11/04 11:13:55;;;;;;;0.20;0.10;;;;;;;;;;5009753;28;20175;-81
2023/11/04 11:16:21;;;;;;;0.20;0.17;;;;;;;;;;5007830;28;20108;-85
2023/11/04 11:18:52;;;;;;;0.20;0.10;;;;;;;;;;5008448;28;20524;-85
2023/11/04 11:21:20;;;;;;;0.20;0.10;;;;;;;;;;5006672;28;20049;-85
2023/11/04 11:23:50;;;;;;;0.20;0.10;;;;;;;;;;5005506;28;20045;-83
2023/11/04 11:26:17;;;;;;;0.20;0.10;;;;;;;;;;4991180;28;20045;-84
2023/11/04 11:28:44;;;;;;;0.20;0.00;;;;;;;;;;4993960;28;20518;-82
2023/11/04 11:31:13;;;;;;;0.30;0.08;;;;;;;;;;4991304;28;20045;-82
2023/11/04 11:33:43;;;;;;;0.20;0.10;;;;;;;;;;5001608;28;20042;-84
2023/11/04 11:36:11;;;;;;;0.20;0.10;;;;;;;;;;5025575;28;20056;-82
2023/11/04 11:38:43;;;;;;;0.20;0.00;;;;;;;;;;5002715;28;20056;-83
2023/11/04 11:41:14;;;;;;;0.30;0.17;;;;;;;;;;5010193;28;20324;-82
2023/11/04 11:43:40;;;;;;;0.20;0.10;;;;;;;;;;5005059;28;20064;-84
2023/11/04 11:46:08;;;;;;;0.20;0.00;;;;;;;;;;5003136;28;20061;-83
2023/11/04 11:48:44;;;;;;;0.20;0.00;;;;;;;;;;5002228;28;20069;-86
2023/11/04 11:51:17;;;;;;;0.20;0.10;;;;;;;;;;5024531;23;20493;-85
2023/11/04 11:53:44;;;;;;;0.20;0.00;;;;;;;;;;5026953;28;20033;-87
2023/11/04 11:56:16;;;;;;;0.20;0.00;;;;;;;;;;5005127;28;20137;-85
2023/11/04 11:58:44;;;;;;;0.20;0.10;;;;;;;;;;5044839;28;20041;-85
2023/11/04 12:01:11;;;;;;;0.20;0.00;;;;;;;;;;5021328;28;20049;-83
2023/11/04 12:03:37;;;;;;;0.20;0.00;;;;;;;;;;5026202;28;20048;-81
2023/11/04 12:06:03;;;;;;;1.30;0.85;;;;;;;;;;5023427;28;20049;-87
2023/11/04 12:08:30;;;;;;;0.38;0.10;;;;;;;;;;5023124;28;20033;-83
2023/11/04 12:10:57;;;;;;;0.20;0.00;;;;;;;;;;5016994;28;20528;-84
2023/11/04 12:13:23;;;;;;;0.20;0.00;;;;;;;;;;5029766;28;20040;-86
2023/11/04 12:15:52;;;;;;;0.20;0.00;;;;;;;;;;5044886;28;20056;-84
2023/11/04 12:18:21;;;;;;;0.20;0.00;;;;;;;;;;5019275;28;20053;-82
2023/11/04 12:20:47;;;;;;;0.20;0.10;;;;;;;;;;5013055;28;20140;-83
2023/11/04 12:23:16;;;;;;;0.20;0.10;;;;;;;;;;5026555;28;20037;-86
2023/11/04 12:25:46;;;;;;;0.20;0.00;;;;;;;;;;5010898;28;20055;-87
2023/11/04 12:28:16;;;;;;;0.20;0.00;;;;;;;;;;5013831;28;20056;-83
2023/11/04 12:30:42;;;;;;;0.20;0.10;;;;;;;;;;5011431;28;20041;-85
2023/11/04 12:33:09;;;;;;;0.20;0.00;;;;;;;;;;5026266;28;20056;-85
2023/11/04 12:35:42;;;;;;;0.20;0.08;;;;;;;;;;5039049;28;20042;-86
2023/11/04 12:38:17;;;;;;;0.20;0.00;;;;;;;;;;5022903;28;20591;-84
2023/11/04 12:40:43;;;;;;;0.20;0.10;;;;;;;;;;5023502;28;20584;-83
2023/11/04 12:43:09;;;;;;;0.20;0.10;;;;;;;;;;5023886;28;20124;-83
2023/11/04 12:45:42;;;;;;;0.20;0.10;;;;;;;;;;5008227;28;20168;-87
2023/11/04 12:48:08;;;;;;;0.20;0.10;;;;;;;;;;5011804;28;20076;-82
2023/11/04 12:50:34;;;;;;;0.20;0.05;;;;;;;;;;5021950;28;20386;-82
2023/11/04 12:53:03;;;;;;;0.20;0.10;;;;;;;;;;5027791;28;20036;-83
2023/11/04 12:55:29;;;;;;;0.20;0.10;;;;;;;;;;5025274;28;20426;-87
2023/11/04 12:58:01;;;;;;;0.20;0.05;;;;;;;;;;5013668;28;20240;-87
2023/11/04 13:00:27;;;;;;;0.20;0.10;;;;;;;;;;5015001;28;20584;-84
2023/11/04 13:02:53;;;;;;;0.20;0.00;;;;;;;;;;5027138;28;20048;-84
2023/11/04 13:05:26;;;;;;;0.20;0.00;;;;;;;;;;5030649;28;20762;-84
2023/11/04 13:07:52;;;;;;;0.20;0.00;;;;;;;;;;5028644;28;20049;-84
2023/11/04 13:10:19;;;;;;;0.20;0.00;;;;;;;;;;5017950;28;20082;-89
2023/11/04 13:12:49;;;;;;;0.20;0.05;;;;;;;;;;5022849;28;20048;-88
2023/11/04 13:15:16;;;;;;;0.20;0.00;;;;;;;;;;5029486;28;20091;-86
2023/11/04 13:17:42;;;;;;;0.20;0.00;;;;;;;;;;5028352;28;20072;-84
2023/11/04 13:20:09;;;;;;;0.20;0.03;;;;;;;;;;5025746;28;20493;-83
2023/11/04 13:22:35;;;;;;;0.20;0.03;;;;;;;;;;5013366;28;20543;-84
2023/11/04 13:25:02;;;;;;;0.20;0.10;;;;;;;;;;5026956;28;20098;-81
2023/11/04 13:27:28;;;;;;;0.20;0.00;;;;;;;;;;5020536;28;20091;-85
2023/11/04 13:29:55;;;;;;;0.20;0.00;;;;;;;;;;5011531;28;20410;-83
2023/11/04 13:32:22;;;;;;;0.20;0.00;;;;;;;;;;5008534;28;20064;-84
2023/11/04 13:34:51;;;;;;;0.20;0.00;;;;;;;;;;5031073;28;20036;-86
2023/11/04 13:37:17;;;;;;;0.20;0.00;;;;;;;;;;5027242;28;20059;-84
2023/11/04 13:39:44;;;;;;;0.20;0.00;;;;;;;;;;5015880;28;20093;-84
2023/11/04 13:42:12;;;;;;;0.20;0.00;;;;;;;;;;5009990;28;20033;-83
2023/11/04 13:44:38;;;;;;;0.20;0.00;;;;;;;;;;5013521;28;20049;-84
2023/11/04 13:47:08;;;;;;;0.20;0.00;;;;;;;;;;5013475;28;20567;-85
2023/11/04 13:49:36;;;;;;;0.20;0.00;;;;;;;;;;5021876;28;20049;-84
2023/11/04 13:52:02;;;;;;;0.20;0.05;;;;;;;;;;5015340;28;20068;-84
2023/11/04 13:54:32;;;;;;;0.20;0.10;;;;;;;;;;5004092;28;20032;-87
2023/11/04 13:57:00;;;;;;;0.20;0.10;;;;;;;;;;5011236;28;20041;-84
2023/11/04 13:59:26;;;;;;;0.20;0.00;;;;;;;;;;5040677;28;20123;-86
2023/11/04 14:01:53;;;;;;;0.20;0.00;;;;;;;;;;5023781;28;20174;-82
2023/11/04 14:04:19;;;;;;;0.20;0.00;;;;;;;;;;5006888;28;20064;-84
2023/11/04 14:06:46;;;;;;;0.20;0.00;;;;;;;;;;5019664;28;20513;-83
2023/11/04 14:09:12;;;;;;;0.20;0.00;;;;;;;;;;5038824;28;20289;-86
2023/11/04 14:11:39;;;;;;;0.20;0.00;;;;;;;;;;5020936;28;20043;-84
2023/11/04 14:14:05;;;;;;;0.20;0.00;;;;;;;;;;5005599;28;20041;-82
2023/11/04 14:16:31;;;;;;;0.20;0.10;;;;;;;;;;5012133;28;20040;-81
2023/11/04 14:18:58;;;;;;;0.20;0.10;;;;;;;;;;5022746;28;20792;-86
2023/11/04 14:21:25;;;;;;;0.20;0.00;;;;;;;;;;5004530;28;20045;-82
2023/11/04 14:23:51;;;;;;;0.20;0.00;;;;;;;;;;5004628;28;20111;-81
2023/11/04 14:26:16;;;;;;;0.20;0.10;;;;;;;;;;5016733;28;20553;-84
2023/11/04 14:28:42;;;;;;;0.20;0.00;;;;;;;;;;5005798;28;20045;-81
2023/11/04 14:31:08;;;;;;;0.20;0.00;;;;;;;;;;5005669;28;20409;-83
2023/11/04 14:33:34;;;;;;;0.20;0.00;;;;;;;;;;5021662;28;20033;-82
2023/11/04 14:36:00;;;;;;;0.20;0.08;;;;;;;;;;5021045;28;20040;-82
2023/11/04 14:38:26;;;;;;;0.20;0.03;;;;;;;;;;5016607;28;20456;-84
2023/11/04 14:40:52;;;;;;;0.20;0.10;;;;;;;;;;5018288;28;20390;-81
2023/11/04 14:43:18;;;;;;;0.20;0.10;;;;;;;;;;5020065;28;20041;-81
2023/11/04 14:45:45;;;;;;;0.20;0.00;;;;;;;;;;5016553;28;20045;-84
2023/11/04 14:48:11;;;;;;;0.20;0.00;;;;;;;;;;5021365;28;20048;-84